Time;durP1;ratioP1;P1;durP2;ratioP2;P2;SDS_P1;SDS_P2;PMS_P1;PMS_P2;Temp;Humidity;BMP_temperature;BMP_pressure;BME280_temperature;BME280_humidity;BME280_pressure;Samples;Min_cycle;Max_cycle;Signal;HPM_P1;HPM_P2
2022/09/20 00:01:23;;;;;;;;;;;;;;;13.28;100.00;98190.50;5080028;28;19935;-85
2022/09/20 00:03:50;;;;;;;;;;;;;;;13.17;100.00;98187.06;5072281;28;19928;-85
2022/09/20 00:06:18;;;;;;;;;;;;;;;13.24;100.00;98189.44;5051623;28;20428;-86
2022/09/20 00:08:45;;;;;;;;;;;;;;;13.17;100.00;98187.06;5055366;28;20463;-86
2022/09/20 00:11:14;;;;;;;;;;;;;;;13.11;100.00;98195.38;5074971;28;19928;-84
2022/09/20 00:13:41;;;;;;;;;;;;;;;12.97;100.00;98200.47;5073567;28;20010;-86
2022/09/20 00:16:08;;;;;;;;;;;;;;;13.04;100.00;98202.88;5060431;28;19954;-86
2022/09/20 00:18:35;;;;;;;;;;;;;;;13.11;100.00;98192.69;5073671;28;19928;-86
2022/09/20 00:21:02;;;;;;;;;;;;;;;13.12;100.00;98202.38;5063464;28;19995;-86
2022/09/20 00:23:29;;;;;;;;;;;;;;;13.16;100.00;98196.16;5064544;28;20011;-86
2022/09/20 00:25:56;;;;;;;;;;;;;;;13.09;100.00;98192.97;5051088;28;19934;-86
2022/09/20 00:28:24;;;;;;;;;;;;;;;13.17;100.00;98200.47;5072274;28;20007;-85
2022/09/20 00:30:51;;;;;;;;;;;;;;;13.13;100.00;98198.59;5062668;28;19929;-86
2022/09/20 00:33:17;;;;;;;;;;;;;;;13.13;100.00;98196.72;5060598;28;19924;-86
2022/09/20 00:35:43;;;;;;;;;;;;;;;13.13;100.00;98193.22;5067297;28;19929;-85
2022/09/20 00:38:10;;;;;;;;;;;;;;;12.95;100.00;98194.56;5063786;28;19934;-86
2022/09/20 00:40:37;;;;;;;;;;;;;;;13.06;100.00;98190.00;5065901;28;19936;-86
2022/09/20 00:43:03;;;;;;;;;;;;;;;12.97;100.00;98190.53;5051910;28;19931;-87
2022/09/20 00:45:31;;;;;;;;;;;;;;;13.00;100.00;98195.38;5059418;28;19924;-85
2022/09/20 00:47:59;;;;;;;;;;;;;;;13.03;100.00;98193.22;5066902;28;19963;-85
2022/09/20 00:50:28;;;;;;;;;;;;;;;13.12;100.00;98189.72;5074067;28;20011;-87
2022/09/20 00:52:57;;;;;;;;;;;;;;;13.05;100.00;98191.06;5059215;28;19985;-87
2022/09/20 00:55:25;;;;;;;;;;;;;;;13.09;100.00;98187.59;5057124;28;20043;-87
2022/09/20 00:57:51;;;;;;;;;;;;;;;13.11;100.00;98190.81;5062406;28;19934;-86
2022/09/20 01:00:17;;;;;;;;;;;;;;;13.09;100.00;98197.53;5041882;28;19992;-85
2022/09/20 01:02:47;;;;;;;;;;;;;;;13.16;100.00;98192.69;5070782;28;20424;-87
2022/09/20 01:05:14;;;;;;;;;;;;;;;13.12;100.00;98194.31;5061975;28;20307;-87
2022/09/20 01:07:41;;;;;;;;;;;;;;;13.07;100.00;98184.38;5070897;28;19924;-86
2022/09/20 01:10:08;;;;;;;;;;;;;;;13.06;100.00;98187.31;5077639;28;20020;-86
2022/09/20 01:12:35;;;;;;;;;;;;;;;13.13;100.00;98191.34;5077623;28;19928;-86
2022/09/20 01:15:02;;;;;;;;;;;;;;;13.04;100.00;98194.81;5058396;28;19928;-86
2022/09/20 01:17:31;;;;;;;;;;;;;;;13.09;100.00;98190.28;5073581;28;19934;-88
2022/09/20 01:20:08;;;;;;;;;;;;;;;13.10;100.00;98191.88;5068288;28;19924;-88
2022/09/20 01:22:41;;;;;;;;;;;;;;;13.19;100.00;98192.13;5070829;28;19963;-86
2022/09/20 01:25:11;;;;;;;;;;;;;;;13.16;100.00;98198.84;5075153;28;19963;-84
2022/09/20 01:27:43;;;;;;;;;;;;;;;13.13;100.00;98188.66;5069187;28;19925;-85
2022/09/20 01:30:13;;;;;;;;;;;;;;;13.03;100.00;98194.00;5078796;28;19924;-86
2022/09/20 01:32:44;;;;;;;;;;;;;;;12.86;100.00;98188.97;5075522;28;19923;-87
2022/09/20 01:35:11;;;;;;;;;;;;;;;12.76;100.00;98190.84;5080443;28;19930;-85
2022/09/20 01:37:43;;;;;;;;;;;;;;;12.70;100.00;98191.94;5078990;28;19924;-86
2022/09/20 01:40:13;;;;;;;;;;;;;;;12.68;100.00;98191.41;5063286;28;19931;-85
2022/09/20 01:42:44;;;;;;;;;;;;;;;12.74;100.00;98183.09;5074895;28;19940;-86
2022/09/20 01:45:15;;;;;;;;;;;;;;;12.60;100.00;98189.25;5045441;28;19924;-84
2022/09/20 01:47:49;;;;;;;;;;;;;;;12.67;100.00;98179.06;5074355;28;19924;-87
2022/09/20 01:50:23;;;;;;;;;;;;;;;12.73;100.00;98181.47;5055760;28;20022;-86
2022/09/20 01:53:10;;;;;;;;;;;;;;;12.71;100.00;98175.59;5071671;28;19935;-85
2022/09/20 01:55:55;;;;;;;;;;;;;;;12.72;100.00;98177.19;5062356;28;19929;-86
2022/09/20 01:58:40;;;;;;;;;;;;;;;12.77;100.00;98184.44;5058997;28;19986;-87
2022/09/20 02:01:23;;;;;;;;;;;;;;;12.87;100.00;98185.19;5063724;28;19934;-86
2022/09/20 02:03:57;;;;;;;;;;;;;;;12.89;100.00;98183.06;5080250;28;19931;-86
2022/09/20 02:06:34;;;;;;;;;;;;;;;12.95;100.00;98184.66;5069812;28;19938;-87
2022/09/20 02:09:12;;;;;;;;;;;;;;;12.96;100.00;98180.91;5063662;28;20017;-87
2022/09/20 02:11:45;;;;;;;;;;;;;;;12.93;100.00;98176.09;5072634;28;19927;-88
2022/09/20 02:14:27;;;;;;;;;;;;;;;12.99;100.00;98182.25;5074717;28;20015;-86
2022/09/20 02:16:56;;;;;;;;;;;;;;;12.96;100.00;98174.75;5074894;28;20019;-89
2022/09/20 02:19:28;;;;;;;;;;;;;;;12.98;100.00;98175.28;5076638;28;20014;-86
2022/09/20 02:22:04;;;;;;;;;;;;;;;12.95;100.00;98181.97;5077198;28;20395;-88
2022/09/20 02:24:39;;;;;;;;;;;;;;;12.89;100.00;98185.75;5068877;28;19924;-88
2022/09/20 02:27:13;;;;;;;;;;;;;;;12.97;100.00;98187.88;5074575;28;20022;-86
2022/09/20 02:29:45;;;;;;;;;;;;;;;12.93;100.00;98194.06;5075730;28;20017;-87
2022/09/20 02:32:18;;;;;;;;;;;;;;;12.89;100.00;98185.75;5060621;28;19929;-88
2022/09/20 02:34:58;;;;;;;;;;;;;;;12.87;100.00;98195.13;5072536;28;20617;-87
2022/09/20 02:37:39;;;;;;;;;;;;;;;12.81;100.00;98191.63;5064147;28;20001;-85
2022/09/20 02:40:15;;;;;;;;;;;;;;;12.78;100.00;98194.84;5061962;28;20037;-86
2022/09/20 02:42:44;;;;;;;;;;;;;;;12.80;100.00;98195.41;5066417;28;20384;-87
2022/09/20 02:45:15;;;;;;;;;;;;;;;12.80;100.00;98195.41;5069662;28;20038;-87
2022/09/20 02:47:43;;;;;;;;;;;;;;;12.87;100.00;98192.47;5075506;28;19928;-87
2022/09/20 02:50:26;;;;;;;;;;;;;;;12.91;100.00;98191.63;5051810;28;19928;-87
2022/09/20 02:53:00;;;;;;;;;;;;;;;12.83;100.00;98199.41;5071005;28;20038;-85
2022/09/20 02:55:32;;;;;;;;;;;;;;;12.87;100.00;98187.88;5060721;28;19924;-87
2022/09/20 02:58:05;;;;;;;;;;;;;;;12.85;100.00;98200.75;5084477;28;19930;-88
2022/09/20 03:00:37;;;;;;;;;;;;;;;12.85;100.00;98191.91;5074029;28;19935;-86
2022/09/20 03:03:09;;;;;;;;;;;;;;;12.84;100.00;98196.47;5071572;28;19932;-87
2022/09/20 03:05:42;;;;;;;;;;;;;;;12.92;100.00;98198.59;5080828;28;20702;-87
2022/09/20 03:08:15;;;;;;;;;;;;;;;12.92;100.00;98193.25;5079639;28;19928;-87
2022/09/20 03:10:47;;;;;;;;;;;;;;;13.02;100.00;98199.66;5083353;28;19946;-87
2022/09/20 03:13:18;;;;;;;;;;;;;;;13.04;100.00;98194.81;5064354;28;19934;-84
2022/09/20 03:15:56;;;;;;;;;;;;;;;13.07;100.00;98189.72;5082905;28;19928;-87
2022/09/20 03:18:32;;;;;;;;;;;;;;;12.96;100.00;98199.69;5077720;28;19939;-87
2022/09/20 03:21:02;;;;;;;;;;;;;;;12.99;100.00;98201.81;5077848;28;19924;-87
2022/09/20 03:23:38;;;;;;;;;;;;;;;12.95;100.00;98192.72;5057760;28;19963;-87
2022/09/20 03:26:12;;;;;;;;;;;;;;;13.04;100.00;98201.00;5075526;28;19925;-86
2022/09/20 03:28:50;;;;;;;;;;;;;;;12.97;100.00;98193.22;5064461;28;20254;-87
2022/09/20 03:31:22;;;;;;;;;;;;;;;13.04;100.00;98201.00;5077492;28;19928;-85
2022/09/20 03:33:55;;;;;;;;;;;;;;;13.09;100.00;98205.59;5075619;28;20467;-87
2022/09/20 03:36:31;;;;;;;;;;;;;;;13.04;100.00;98210.91;5056653;28;20021;-87
2022/09/20 03:39:07;;;;;;;;;;;;;;;13.12;100.00;98207.72;5072753;28;20034;-84
2022/09/20 03:41:52;;;;;;;;;;;;;;;13.09;100.00;98210.94;5057262;28;19938;-86
2022/09/20 03:44:28;;;;;;;;;;;;;;;13.16;100.00;98206.09;5062423;28;19924;-85
2022/09/20 03:47:03;;;;;;;;;;;;;;;13.12;100.00;98205.03;5084214;28;19924;-87
2022/09/20 03:49:45;;;;;;;;;;;;;;;13.17;100.00;98207.69;5062655;28;20644;-87
2022/09/20 03:52:21;;;;;;;;;;;;;;;12.95;100.00;98206.13;5059483;28;20004;-88
2022/09/20 03:55:03;;;;;;;;;;;;;;;13.04;100.00;98200.19;5081488;28;19935;-88
2022/09/20 03:57:38;;;;;;;;;;;;;;;12.99;100.00;98207.19;5078478;28;19932;-88
2022/09/20 04:00:14;;;;;;;;;;;;;;;13.02;100.00;98207.72;5075174;28;20332;-86
2022/09/20 04:02:58;;;;;;;;;;;;;;;12.97;100.00;98205.81;5073333;28;19932;-86
2022/09/20 04:05:30;;;;;;;;;;;;;;;13.03;100.00;98207.41;5075992;28;20416;-87
2022/09/20 04:08:06;;;;;;;;;;;;;;;12.98;100.00;98218.97;5070727;28;19930;-86
2022/09/20 04:10:41;;;;;;;;;;;;;;;12.94;100.00;98212.53;5068890;28;19936;-86
2022/09/20 04:13:15;;;;;;;;;;;;;;;12.97;100.00;98214.69;5076852;28;19975;-86
2022/09/20 04:15:46;;;;;;;;;;;;;;;12.97;100.00;98208.50;5059967;28;20350;-85
2022/09/20 04:18:18;;;;;;;;;;;;;;;12.91;100.00;98207.72;5087521;28;19928;-86
2022/09/20 04:20:46;;;;;;;;;;;;;;;12.97;100.00;98203.13;5085182;28;19932;-87
2022/09/20 04:23:25;;;;;;;;;;;;;;;12.99;100.00;98212.53;5086186;28;19924;-89
2022/09/20 04:25:51;;;;;;;;;;;;;;;12.99;100.00;98203.69;5074972;28;19924;-87
2022/09/20 04:28:21;;;;;;;;;;;;;;;13.04;100.00;98206.34;5072150;28;19943;-87
2022/09/20 04:30:49;;;;;;;;;;;;;;;13.03;100.00;98214.69;5064561;28;20005;-88
2022/09/20 04:33:19;;;;;;;;;;;;;;;13.03;100.00;98222.72;5081812;28;19934;-86
2022/09/20 04:38:36;;;;;;;;;;;;;;;13.03;100.00;98234.22;5036705;28;19929;-85
2022/09/20 04:41:16;;;;;;;;;;;;;;;13.04;100.00;98235.84;5056107;28;19928;-87
2022/09/20 04:44:01;;;;;;;;;;;;;;;12.99;100.00;98227.81;5058484;28;19928;-87
2022/09/20 04:46:37;;;;;;;;;;;;;;;13.04;100.00;98233.16;5060340;28;19943;-88
2022/09/20 04:49:19;;;;;;;;;;;;;;;12.96;100.00;98237.22;5046772;28;19928;-88
2022/09/20 04:52:06;;;;;;;;;;;;;;;12.93;100.00;98236.94;5062490;28;20273;-86
2022/09/20 04:54:51;;;;;;;;;;;;;;;12.93;100.00;98240.44;5060259;28;19928;-86
2022/09/20 04:57:46;;;;;;;;;;;;;;;12.81;100.00;98229.16;5054094;28;19925;-87
2022/09/20 05:00:15;;;;;;;;;;;;;;;12.79;100.00;98236.69;5039061;28;20483;-86
2022/09/20 05:02:54;;;;;;;;;;;;;;;12.84;100.00;98236.66;5049595;28;20015;-87
2022/09/20 05:05:45;;;;;;;;;;;;;;;12.92;100.00;98246.88;5051742;28;19924;-88
2022/09/20 05:08:32;;;;;;;;;;;;;;;13.03;100.00;98246.84;5065373;28;19925;-87
2022/09/20 05:11:17;;;;;;;;;;;;;;;13.08;100.00;98247.69;5062099;28;19928;-86
2022/09/20 05:13:55;;;;;;;;;;;;;;;13.02;100.00;98247.91;5076688;28;20542;-87
2022/09/20 05:16:27;;;;;;;;;;;;;;;13.06;100.00;98246.31;5079113;28;20292;-85
2022/09/20 05:19:07;;;;;;;;;;;;;;;13.10;100.00;98245.53;5086148;28;20409;-86
2022/09/20 05:21:43;;;;;;;;;;;;;;;13.11;100.00;98244.47;5079747;28;19934;-89
2022/09/20 05:24:31;;;;;;;;;;;;;;;12.95;100.00;98242.84;5078432;28;19924;-86
2022/09/20 05:27:09;;;;;;;;;;;;;;;12.86;100.00;98247.94;5066010;28;19939;-87
2022/09/20 05:29:43;;;;;;;;;;;;;;;12.83;100.00;98250.34;5052228;28;19924;-87
2022/09/20 05:32:17;;;;;;;;;;;;;;;12.70;100.00;98249.00;5073869;28;19924;-86
2022/09/20 05:34:50;;;;;;;;;;;;;;;12.84;100.00;98255.44;5071106;28;19935;-87
2022/09/20 05:37:21;;;;;;;;;;;;;;;12.82;100.00;98256.78;5048761;28;20466;-85
2022/09/20 05:39:52;;;;;;;;;;;;;;;12.85;100.00;98269.63;5071841;28;19924;-86
2022/09/20 05:42:20;;;;;;;;;;;;;;;12.88;100.00;98267.22;5046376;28;20394;-86
2022/09/20 05:44:54;;;;;;;;;;;;;;;12.86;100.00;98269.38;5064927;28;19925;-87
2022/09/20 05:47:24;;;;;;;;;;;;;;;12.87;100.00;98270.97;5045735;28;19932;-85
2022/09/20 05:49:59;;;;;;;;;;;;;;;12.85;100.00;98278.47;5050140;28;19955;-86
2022/09/20 05:52:32;;;;;;;;;;;;;;;12.88;100.00;98277.94;5067660;28;19935;-87
2022/09/20 05:55:06;;;;;;;;;;;;;;;12.85;100.00;98273.13;5078375;28;19928;-86
2022/09/20 05:57:39;;;;;;;;;;;;;;;12.87;100.00;98281.69;5069734;28;20031;-86
2022/09/20 06:00:12;;;;;;;;;;;;;;;12.81;100.00;98279.31;5073986;28;20370;-88
2022/09/20 06:02:44;;;;;;;;;;;;;;;12.69;100.00;98279.56;5083587;28;19975;-86
2022/09/20 06:05:13;;;;;;;;;;;;;;;12.78;100.00;98272.59;5062120;28;19931;-88
2022/09/20 06:08:02;;;;;;;;;;;;;;;12.79;100.00;98279.56;5090198;28;20462;-89
2022/09/20 06:10:47;;;;;;;;;;;;;;;12.90;100.00;98275.78;5086399;28;20317;-85
2022/09/20 06:13:22;;;;;;;;;;;;;;;13.01;100.00;98276.59;5052797;28;19974;-87
2022/09/20 06:15:54;;;;;;;;;;;;;;;12.90;100.00;98275.78;5070587;28;19935;-88
2022/09/20 06:18:22;;;;;;;;;;;;;;;12.87;100.00;98284.38;5077855;28;20531;-87
2022/09/20 06:20:54;;;;;;;;;;;;;;;12.85;100.00;98283.84;5068941;28;19982;-89
2022/09/20 06:23:22;;;;;;;;;;;;;;;12.85;100.00;98277.69;5094263;28;19924;-89
2022/09/20 06:25:56;;;;;;;;;;;;;;;12.78;100.00;98277.94;5067186;28;22401;-87
2022/09/20 06:28:24;;;;;;;;;;;;;;;12.88;100.00;98277.94;5062881;28;20391;-86
2022/09/20 06:30:52;;;;;;;;;;;;;;;12.80;100.00;98278.50;5060784;28;19990;-86
2022/09/20 06:33:20;;;;;;;;;;;;;;;12.91;100.00;98288.13;5069939;28;19938;-87
2022/09/20 06:35:49;;;;;;;;;;;;;;;12.93;100.00;98286.00;5052759;28;19931;-88
2022/09/20 06:43:59;;;;;;;;;;;;;;;12.92;100.00;98278.22;5059594;28;19999;-88
2022/09/20 06:46:27;;;;;;;;;;;;;;;12.92;100.00;98279.03;5040359;28;19924;-87
2022/09/20 06:48:54;;;;;;;;;;;;;;;12.92;100.00;98284.38;5054576;28;19924;-86
2022/09/20 06:51:21;;;;;;;;;;;;;;;12.77;100.00;98289.75;5066831;28;19928;-87
2022/09/20 06:53:48;;;;;;;;;;;;;;;12.70;100.00;98296.44;5066342;28;20686;-86
2022/09/20 06:56:16;;;;;;;;;;;;;;;12.75;100.00;98296.47;5065033;28;19978;-89
2022/09/20 06:58:43;;;;;;;;;;;;;;;12.84;100.00;98300.22;5071486;28;19928;-87
2022/09/20 07:01:09;;;;;;;;;;;;;;;12.92;100.00;98299.66;5071841;28;19928;-87
2022/09/20 07:03:37;;;;;;;;;;;;;;;12.99;100.00;98292.97;5063099;28;20326;-86
2022/09/20 07:06:04;;;;;;;;;;;;;;;12.84;100.00;98290.28;5046999;28;20012;-86
2022/09/20 07:08:30;;;;;;;;;;;;;;;12.90;100.00;98291.88;5064277;28;20039;-86
2022/09/20 07:10:56;;;;;;;;;;;;;;;12.96;100.00;98296.19;5056765;28;19931;-88
2022/09/20 07:13:23;;;;;;;;;;;;;;;13.03;100.00;98297.81;5080795;28;19924;-87
2022/09/20 07:15:49;;;;;;;;;;;;;;;12.98;100.00;98302.09;5057481;28;20011;-87
2022/09/20 07:18:16;;;;;;;;;;;;;;;12.90;100.00;98297.25;5056682;28;20398;-87
2022/09/20 07:20:43;;;;;;;;;;;;;;;12.85;100.00;98297.25;5063502;28;19999;-86
2022/09/20 07:23:10;;;;;;;;;;;;;;;12.78;100.00;98301.28;5055495;28;19924;-87
2022/09/20 07:25:36;;;;;;;;;;;;;;;12.74;100.00;98295.66;5050785;28;19924;-86
2022/09/20 07:28:03;;;;;;;;;;;;;;;12.82;100.00;98296.97;5054508;28;19932;-86
2022/09/20 07:30:29;;;;;;;;;;;;;;;12.76;100.00;98306.91;5081204;28;19946;-87
2022/09/20 07:32:56;;;;;;;;;;;;;;;12.85;100.00;98305.28;5042631;28;19934;-86
2022/09/20 07:35:22;;;;;;;;;;;;;;;12.93;100.00;98312.00;5053115;28;19935;-86
2022/09/20 07:37:55;;;;;;;;;;;;;;;12.75;100.00;98299.91;5084745;28;19934;-87
2022/09/20 07:40:21;;;;;;;;;;;;;;;12.64;100.00;98298.31;5080370;28;19929;-86
2022/09/20 07:42:48;;;;;;;;;;;;;;;12.78;100.00;98312.78;5070253;28;19931;-86
2022/09/20 07:45:14;;;;;;;;;;;;;;;12.89;100.00;98310.94;5076424;28;20627;-87
2022/09/20 07:47:43;;;;;;;;;;;;;;;12.81;100.00;98317.59;5053260;28;19928;-87
2022/09/20 07:50:10;;;;;;;;;;;;;;;12.79;100.00;98316.28;5068648;28;19935;-87
2022/09/20 07:52:36;;;;;;;;;;;;;;;12.75;100.00;98320.56;5057196;28;19950;-86
2022/09/20 07:55:04;;;;;;;;;;;;;;;12.84;100.00;98330.47;5071274;28;19935;-86
2022/09/20 07:57:34;;;;;;;;;;;;;;;12.92;100.00;98315.75;5070046;28;20411;-87
2022/09/20 08:00:00;;;;;;;;;;;;;;;13.05;100.00;98319.78;5080638;28;19935;-86
2022/09/20 08:02:26;;;;;;;;;;;;;;;13.14;100.00;98318.19;5079904;28;20023;-87
2022/09/20 08:04:53;;;;;;;;;;;;;;;12.96;100.00;98314.97;5074949;28;19936;-86
2022/09/20 08:07:19;;;;;;;;;;;;;;;12.92;100.00;98327.28;5081023;28;20007;-88
2022/09/20 08:09:45;;;;;;;;;;;;;;;12.87;100.00;98324.59;5057521;28;19946;-88
2022/09/20 08:12:13;;;;;;;;;;;;;;;12.98;100.00;98331.56;5076937;28;19928;-87
2022/09/20 08:14:39;;;;;;;;;;;;;;;13.03;100.00;98338.03;5079620;28;19932;-87
2022/09/20 08:17:06;;;;;;;;;;;;;;;12.95;100.00;98334.78;5063834;28;19924;-86
2022/09/20 08:19:32;;;;;;;;;;;;;;;12.92;100.00;98342.56;5068269;28;19931;-87
2022/09/20 08:21:58;;;;;;;;;;;;;;;12.94;100.00;98335.84;5075934;28;20007;-88
2022/09/20 08:24:26;;;;;;;;;;;;;;;12.92;100.00;98338.00;5069679;28;19943;-87
2022/09/20 08:26:52;;;;;;;;;;;;;;;12.94;100.00;98341.22;5073581;28;19932;-87
2022/09/20 08:29:20;;;;;;;;;;;;;;;12.86;100.00;98336.41;5069657;28;19931;-87
2022/09/20 08:31:46;;;;;;;;;;;;;;;12.54;100.00;98335.78;5072956;28;19934;-86
2022/09/20 08:34:14;;;;;;;;;;;;;;;12.62;100.00;98340.66;5047402;28;19928;-87
2022/09/20 08:36:43;;;;;;;;;;;;;;;12.83;100.00;98325.41;5065618;28;20067;-88
2022/09/20 08:39:09;;;;;;;;;;;;;;;12.87;100.00;98324.59;5076739;28;19924;-87
2022/09/20 08:41:38;;;;;;;;;;;;;;;12.81;100.00;98328.34;5071685;28;19932;-87
2022/09/20 08:44:07;;;;;;;;;;;;;;;12.98;100.00;98330.75;5078052;28;19929;-86
2022/09/20 08:46:37;;;;;;;;;;;;;;;12.88;100.00;98336.13;5074810;28;19971;-87
2022/09/20 08:49:04;;;;;;;;;;;;;;;12.93;100.00;98328.91;5052230;28;19981;-87
2022/09/20 08:51:33;;;;;;;;;;;;;;;12.90;100.00;98332.09;5059807;28;20019;-86
2022/09/20 08:54:00;;;;;;;;;;;;;;;12.93;100.00;98328.91;5071889;28;20370;-87
2022/09/20 08:56:28;;;;;;;;;;;;;;;13.03;100.00;98329.97;5064244;28;19965;-87
2022/09/20 08:58:58;;;;;;;;;;;;;;;13.13;100.00;98330.78;5066432;28;20446;-86
2022/09/20 09:01:26;;;;;;;;;;;;;;;13.07;100.00;98334.50;5052098;28;20026;-88
2022/09/20 09:03:57;;;;;;;;;;;;;;;13.21;100.00;98332.13;5086144;28;19927;-86
2022/09/20 09:06:24;;;;;;;;;;;;;;;13.14;100.00;98326.22;5078714;28;19925;-87
2022/09/20 09:08:52;;;;;;;;;;;;;;;13.17;100.00;98317.66;5063305;28;19934;-87
2022/09/20 09:11:20;;;;;;;;;;;;;;;13.16;100.00;98318.72;5073708;28;20465;-86
2022/09/20 09:13:50;;;;;;;;;;;;;;;13.09;100.00;98323.56;5096581;28;19928;-87
2022/09/20 09:16:18;;;;;;;;;;;;;;;13.23;100.00;98319.25;5058787;28;20538;-86
2022/09/20 09:18:45;;;;;;;;;;;;;;;13.30;100.00;98325.16;5060643;28;20462;-88
2022/09/20 09:21:19;;;;;;;;;;;;;;;13.35;100.00;98322.47;5053579;28;19924;-87
2022/09/20 09:23:49;;;;;;;;;;;;;;;13.42;100.00;98325.69;5085495;28;19924;-86
2022/09/20 09:26:18;;;;;;;;;;;;;;;13.38;100.00;98314.69;5084886;28;19924;-87
2022/09/20 09:28:44;;;;;;;;;;;;;;;13.42;100.00;98315.75;5090486;28;20272;-88
2022/09/20 09:31:12;;;;;;;;;;;;;;;13.49;100.00;98321.63;5065300;28;20006;-87
2022/09/20 09:33:42;;;;;;;;;;;;;;;13.44;100.00;98313.59;5069687;28;19928;-88
2022/09/20 09:36:13;;;;;;;;;;;;;;;13.52;100.00;98310.34;5084134;28;19924;-86
2022/09/20 09:38:43;;;;;;;;;;;;;;;13.59;100.00;98306.56;5060654;28;19935;-86
2022/09/20 09:41:23;;;;;;;;;;;;;;;13.59;100.00;98304.69;5070355;28;19965;-86
2022/09/20 09:43:58;;;;;;;;;;;;;;;13.55;100.00;98308.22;5065601;28;19931;-84
2022/09/20 09:46:25;;;;;;;;;;;;;;;13.48;100.00;98308.50;5084649;28;20374;-87
2022/09/20 09:49:06;;;;;;;;;;;;;;;13.59;100.00;98301.19;5087330;28;19935;-86
2022/09/20 09:51:32;;;;;;;;;;;;;;;13.71;100.00;98305.19;5059720;28;19924;-86
2022/09/20 09:54:00;;;;;;;;;;;;;;;13.92;100.00;98298.69;5084762;28;19925;-87
2022/09/20 09:56:32;;;;;;;;;;;;;;;14.03;100.00;98300.25;5062133;28;19928;-88
2022/09/20 09:59:09;;;;;;;;;;;;;;;14.22;100.00;98299.63;5073156;28;20391;-86
2022/09/20 10:01:41;;;;;;;;;;;;;;;14.33;100.00;98293.13;5071676;28;19935;-88
2022/09/20 10:04:14;;;;;;;;;;;;;;;14.46;100.00;98290.66;5061882;28;20003;-87
2022/09/20 10:06:43;;;;;;;;;;;;;;;14.43;100.00;98293.88;5087104;28;19935;-87
2022/09/20 10:09:17;;;;;;;;;;;;;;;14.36;100.00;98295.28;5080438;28;20027;-85
2022/09/20 10:11:57;;;;;;;;;;;;;;;14.46;100.00;98284.47;5077427;28;19955;-86
2022/09/20 10:14:29;;;;;;;;;;;;;;;14.42;100.00;98286.91;5073128;28;19974;-86
2022/09/20 10:17:03;;;;;;;;;;;;;;;14.39;100.00;98287.47;5067751;28;19935;-87
2022/09/20 10:19:39;;;;;;;;;;;;;;;14.34;100.00;98300.94;5082846;28;20769;-86
2022/09/20 10:22:11;;;;;;;;;;;;;;;14.32;100.00;98283.47;5088784;28;19935;-86
2022/09/20 10:24:43;;;;;;;;;;;;;;;14.32;100.00;98296.88;5074252;28;20023;-87
2022/09/20 10:27:24;;;;;;;;;;;;;;;14.45;100.00;98296.31;5056502;28;19928;-87
2022/09/20 10:30:01;;;;;;;;;;;;;;;14.60;100.00;98277.41;5079036;28;19928;-87
2022/09/20 10:32:34;;;;;;;;;;;;;;;14.74;100.00;98291.00;5055833;28;19928;-88
2022/09/20 10:35:13;;;;;;;;;;;;;;;14.81;100.00;98284.22;5076479;28;19941;-88
2022/09/20 10:37:45;;;;;;;;;;;;;;;14.70;100.00;98284.59;5073322;28;20494;-86
2022/09/20 10:40:20;;;;;;;;;;;;;;;14.62;100.00;98294.03;5057294;28;20041;-87
2022/09/20 10:45:37;;;;;;;;;;;;;;;14.56;100.00;98284.41;5076853;28;20311;-86
2022/09/20 10:48:06;;;;;;;;;;;;;;;14.50;100.00;98293.59;5066817;28;19928;-87
2022/09/20 10:50:37;;;;;;;;;;;;;;;14.48;100.00;98287.69;5069787;28;19928;-86
2022/09/20 10:53:09;;;;;;;;;;;;;;;14.40;100.00;98299.00;5059175;28;20349;-85
2022/09/20 10:55:44;;;;;;;;;;;;;;;14.49;100.00;98297.34;5068908;28;19924;-86
2022/09/20 10:58:29;;;;;;;;;;;;;;;14.52;100.00;98292.22;5050689;28;19932;-87
2022/09/20 11:01:01;;;;;;;;;;;;;;;14.73;100.00;98289.41;5065788;28;20744;-86
2022/09/20 11:03:36;;;;;;;;;;;;;;;14.95;100.00;98298.63;5069583;28;19931;-88
2022/09/20 11:06:09;;;;;;;;;;;;;;;15.08;100.00;98287.22;5071260;28;19928;-87
2022/09/20 11:08:37;;;;;;;;;;;;;;;15.09;100.00;98291.53;5071107;28;19930;-87
2022/09/20 11:11:09;;;;;;;;;;;;;;;15.12;100.00;98285.56;5111470;28;19981;-87
2022/09/20 11:13:39;;;;;;;;;;;;;;;15.20;100.00;98283.34;5075194;28;19930;-86
2022/09/20 11:16:09;;;;;;;;;;;;;;;15.36;100.00;98282.91;5080240;28;19935;-89
2022/09/20 11:18:39;;;;;;;;;;;;;;;15.57;100.00;98283.53;5074381;28;19951;-86
2022/09/20 11:21:08;;;;;;;;;;;;;;;15.59;100.00;98279.50;5069722;28;19939;-85
2022/09/20 11:23:40;;;;;;;;;;;;;;;15.64;100.00;98276.72;5065767;28;19972;-89
2022/09/20 11:26:10;;;;;;;;;;;;;;;15.63;100.00;98277.00;5080652;28;19928;-87
2022/09/20 11:28:39;;;;;;;;;;;;;;;15.51;100.00;98285.47;5087830;28;19928;-88
2022/09/20 11:31:09;;;;;;;;;;;;;;;15.57;100.00;98286.22;5075860;28;19931;-86
2022/09/20 11:33:39;;;;;;;;;;;;;;;15.46;100.00;98279.31;5089432;28;19925;-87
2022/09/20 11:36:09;;;;;;;;;;;;;;;15.66;100.00;98287.19;5050325;28;20425;-86
2022/09/20 11:38:39;;;;;;;;;;;;;;;15.75;100.00;98292.78;5084894;28;19928;-87
2022/09/20 11:41:08;;;;;;;;;;;;;;;15.82;100.00;98291.31;5083983;28;19928;-88
2022/09/20 11:43:37;;;;;;;;;;;;;;;15.82;100.00;98283.25;5072410;28;19928;-86
2022/09/20 11:46:06;;;;;;;;;;;;;;;15.76;100.00;98275.50;5069627;28;19971;-88
2022/09/20 11:48:35;;;;;;;;;;;;;;;15.54;100.00;98300.25;5049911;28;19968;-87
2022/09/20 11:51:16;;;;;;;;;;;;;;;15.56;100.00;98301.59;5069432;28;19986;-86
2022/09/20 11:53:49;;;;;;;;;;;;;;;15.45;97.82;98310.81;5077879;28;20011;-88
2022/09/20 11:56:18;;;;;;;;;;;;;;;14.91;98.62;98305.66;5050595;28;19924;-87
2022/09/20 11:58:48;;;;;;;;;;;;;;;14.72;100.00;98323.53;5073667;28;19925;-89
2022/09/20 12:01:16;;;;;;;;;;;;;;;14.64;100.00;98310.69;5078881;28;19943;-87
2022/09/20 12:03:44;;;;;;;;;;;;;;;14.50;100.00;98309.72;5081541;28;20019;-85
2022/09/20 12:06:24;;;;;;;;;;;;;;;14.65;100.00;98309.59;5075124;28;19992;-87
2022/09/20 12:08:51;;;;;;;;;;;;;;;14.91;100.00;98305.66;5069469;28;19935;-86
2022/09/20 12:11:26;;;;;;;;;;;;;;;14.82;100.00;98301.97;5073217;28;19931;-86
2022/09/20 12:13:57;;;;;;;;;;;;;;;14.85;100.00;98300.59;5090670;28;19924;-87
2022/09/20 12:16:36;;;;;;;;;;;;;;;14.77;100.00;98299.31;5075189;28;19930;-88
2022/09/20 12:19:05;;;;;;;;;;;;;;;14.61;100.00;98303.19;5063055;28;19978;-87
2022/09/20 12:21:52;;;;;;;;;;;;;;;14.72;100.00;98290.47;5076298;28;19927;-87
2022/09/20 12:24:20;;;;;;;;;;;;;;;14.86;100.00;98294.94;5072925;28;19925;-87
2022/09/20 12:26:48;;;;;;;;;;;;;;;14.94;100.00;98293.53;5082015;28;20022;-86
2022/09/20 12:29:33;;;;;;;;;;;;;;;14.91;100.00;98283.34;5073777;28;19956;-87
2022/09/20 12:32:01;;;;;;;;;;;;;;;14.79;100.00;98285.59;5070141;28;20358;-89
2022/09/20 12:34:32;;;;;;;;;;;;;;;14.74;100.00;98285.63;5068978;28;20016;-86
2022/09/20 12:37:18;;;;;;;;;;;;;;;14.74;100.00;98281.03;5081754;28;19924;-88
2022/09/20 12:39:51;;;;;;;;;;;;;;;14.71;100.00;98273.53;5050842;28;19925;-89
2022/09/20 12:42:27;;;;;;;;;;;;;;;14.87;100.00;98287.66;5058385;28;19951;-86
2022/09/20 12:44:57;;;;;;;;;;;;;;;14.96;100.00;98281.41;5066340;28;19934;-85
2022/09/20 12:47:26;;;;;;;;;;;;;;;15.16;100.00;98282.31;5062132;28;19929;-88
2022/09/20 12:53:03;;;;;;;;;;;;;;;15.23;100.00;98280.06;5090920;28;19935;-86
2022/09/20 12:55:44;;;;;;;;;;;;;;;15.20;100.00;98270.69;5052700;28;19931;-87
2022/09/20 12:58:33;;;;;;;;;;;;;;;15.48;100.00;98282.56;5083569;28;19924;-86
2022/09/20 13:01:18;;;;;;;;;;;;;;;15.59;100.00;98281.38;5059166;28;19955;-86
2022/09/20 13:03:48;;;;;;;;;;;;;;;15.40;100.00;98283.97;5086404;28;20011;-88
2022/09/20 13:06:22;;;;;;;;;;;;;;;14.89;100.00;98296.25;5081625;28;20383;-86
2022/09/20 13:08:52;;;;;;;;;;;;;;;14.71;100.00;98296.94;5071111;28;20334;-84
2022/09/20 13:11:20;;;;;;;;;;;;;;;14.56;100.00;98297.84;5065506;28;19924;-87
2022/09/20 13:13:49;;;;;;;;;;;;;;;14.24;100.00;98306.31;5050713;28;20411;-86